Time;durP1;ratioP1;P1;durP2;ratioP2;P2;SDS_P1;SDS_P2;PMS_P1;PMS_P2;Temp;Humidity;BMP_temperature;BMP_pressure;BME280_temperature;BME280_humidity;BME280_pressure;Samples;Min_cycle;Max_cycle;Signal;HPM_P1;HPM_P2
2022/02/06 00:00:16;;;;;;;;;4.00;4.00;;;;;;;;5022989;28;45347;-96
2022/02/06 00:02:45;;;;;;;;;2.00;1.67;;;;;;;;5018349;28;45321;-96
2022/02/06 00:05:11;;;;;;;;;7.00;5.67;;;;;;;;5022146;28;46497;-96
2022/02/06 00:07:37;;;;;;;;;4.33;4.00;;;;;;;;5025779;28;45377;-96
2022/02/06 00:10:02;;;;;;;;;6.00;3.00;;;;;;;;5025740;28;44693;-96
2022/02/06 00:12:27;;;;;;;;;7.67;5.67;;;;;;;;5024688;28;45808;-96
2022/02/06 00:14:53;;;;;;;;;1.00;1.00;;;;;;;;5008432;28;46971;-96
2022/02/06 00:17:18;;;;;;;;;6.00;3.33;;;;;;;;5019565;28;45431;-96
2022/02/06 00:19:44;;;;;;;;;4.00;4.00;;;;;;;;5047815;28;45415;-96
2022/02/06 00:22:14;;;;;;;;;5.33;4.33;;;;;;;;5033731;28;44822;-96
2022/02/06 00:24:47;;;;;;;;;3.33;2.67;;;;;;;;5032193;28;47183;-96
2022/02/06 00:27:25;;;;;;;;;6.33;4.00;;;;;;;;5015889;28;45682;-96
2022/02/06 00:30:00;;;;;;;;;3.00;3.00;;;;;;;;5015517;28;45244;-96
2022/02/06 00:32:39;;;;;;;;;3.33;3.00;;;;;;;;5036407;28;44775;-96
2022/02/06 00:38:13;;;;;;;;;4.33;3.67;;;;;;;;5062719;28;45014;-96
2022/02/06 00:43:22;;;;;;;;;3.33;3.00;;;;;;;;5729667;22;46430;-96
2022/02/06 00:45:49;;;;;;;;;5.33;4.00;;;;;;;;5057635;28;47126;-96
2022/02/06 00:48:20;;;;;;;;;6.00;4.00;;;;;;;;5034850;28;45215;-96
2022/02/06 00:50:49;;;;;;;;;6.00;3.67;;;;;;;;5044696;28;44945;-96
2022/02/06 00:53:17;;;;;;;;;3.00;3.00;;;;;;;;5044051;28;44836;-96
2022/02/06 00:55:42;;;;;;;;;3.00;2.33;;;;;;;;5058999;28;48575;-96
2022/02/06 00:58:08;;;;;;;;;5.33;3.00;;;;;;;;5041822;28;44953;-96
2022/02/06 01:00:33;;;;;;;;;3.00;3.00;;;;;;;;5026411;28;45212;-96
2022/02/06 01:02:58;;;;;;;;;2.00;1.00;;;;;;;;5028348;28;45175;-96
2022/02/06 01:05:24;;;;;;;;;3.33;2.67;;;;;;;;5028381;28;48035;-96
2022/02/06 01:07:51;;;;;;;;;2.33;2.33;;;;;;;;5039103;28;45591;-96
2022/02/06 01:10:17;;;;;;;;;1.67;1.00;;;;;;;;5047480;28;44833;-96
2022/02/06 01:12:47;;;;;;;;;3.33;3.33;;;;;;;;5034699;28;45298;-96
2022/02/06 01:15:20;;;;;;;;;3.33;3.00;;;;;;;;5042675;28;47420;-96
2022/02/06 01:18:00;;;;;;;;;7.00;4.00;;;;;;;;5046203;28;45729;-96
2022/02/06 01:20:40;;;;;;;;;2.00;2.00;;;;;;;;5036495;28;45332;-96
2022/02/06 01:23:47;;;;;;;;;3.33;2.33;;;;;;;;5034268;28;45594;-96
2022/02/06 01:26:05;;;;;;;;;6.00;4.00;;;;;;;;5057346;28;46598;-96
2022/02/06 01:28:42;;;;;;;;;3.00;2.00;;;;;;;;5054338;28;45378;-96
2022/02/06 01:31:30;;;;;;;;;5.33;2.67;;;;;;;;5053570;28;45395;-96
2022/02/06 01:33:59;;;;;;;;;3.00;3.00;;;;;;;;5053710;28;45561;-96
2022/02/06 01:36:43;;;;;;;;;1.00;1.00;;;;;;;;5052127;28;47342;-96
2022/02/06 01:39:38;;;;;;;;;2.00;2.00;;;;;;;;5075404;28;45253;-96
2022/02/06 01:42:05;;;;;;;;;3.33;2.67;;;;;;;;5041826;28;45400;-96
2022/02/06 01:44:49;;;;;;;;;3.00;2.00;;;;;;;;5058640;28;45460;-96
2022/02/06 02:01:35;;;;;;;;;2.00;2.00;;;;;;;;5073926;28;45218;-96
2022/02/06 02:04:08;;;;;;;;;1.00;1.00;;;;;;;;5073165;28;44840;-96
2022/02/06 02:06:54;;;;;;;;;4.67;2.33;;;;;;;;5037203;28;45491;-96
2022/02/06 02:09:54;;;;;;;;;3.67;2.33;;;;;;;;5052147;28;46141;-96
2022/02/06 02:12:33;;;;;;;;;4.00;1.67;;;;;;;;5070626;28;45279;-96
2022/02/06 02:23:42;;;;;;;;;2.00;2.00;;;;;;;;5003445;28;45694;-96
2022/02/06 02:26:36;;;;;;;;;2.00;2.00;;;;;;;;4990858;28;45373;-96
2022/02/06 02:32:32;;;;;;;;;2.00;2.00;;;;;;;;4985989;28;45560;-96
2022/02/06 02:48:15;;;;;;;;;4.00;2.00;;;;;;;;4974263;28;45431;-96
2022/02/06 02:50:44;;;;;;;;;4.00;3.00;;;;;;;;4959901;28;44970;-96
2022/02/06 03:03:54;;;;;;;;;4.00;2.00;;;;;;;;5032046;28;46819;-96
2022/02/06 03:06:21;;;;;;;;;2.67;2.00;;;;;;;;4977886;28;45431;-96
2022/02/06 03:08:48;;;;;;;;;3.67;2.67;;;;;;;;5006385;28;45402;-96
2022/02/06 03:11:15;;;;;;;;;4.67;3.00;;;;;;;;5023860;28;44860;-96
2022/02/06 03:13:57;;;;;;;;;1.67;1.67;;;;;;;;4981257;28;45837;-96
2022/02/06 03:16:28;;;;;;;;;4.67;2.33;;;;;;;;5014295;28;45665;-96
2022/02/06 03:19:06;;;;;;;;;2.33;2.33;;;;;;;;5011167;28;44781;-96
2022/02/06 03:21:55;;;;;;;;;2.00;2.00;;;;;;;;5020630;28;44833;-96
2022/02/06 03:24:43;;;;;;;;;5.33;2.00;;;;;;;;5056850;28;45562;-96
2022/02/06 03:27:10;;;;;;;;;3.33;2.33;;;;;;;;5037336;28;44948;-96
2022/02/06 03:29:35;;;;;;;;;3.33;2.00;;;;;;;;5023968;28;46204;-96
2022/02/06 03:32:00;;;;;;;;;1.00;0.00;;;;;;;;5038932;28;45334;-96
2022/02/06 03:34:32;;;;;;;;;3.00;3.00;;;;;;;;5038543;28;47049;-96
2022/02/06 03:36:57;;;;;;;;;1.00;1.00;;;;;;;;5035883;28;44801;-96
2022/02/06 03:39:35;;;;;;;;;2.00;2.00;;;;;;;;5055964;28;45245;-96
2022/02/06 03:42:16;;;;;;;;;6.33;2.33;;;;;;;;5054646;28;45435;-96
2022/02/06 03:45:05;;;;;;;;;3.00;2.33;;;;;;;;5070705;28;45406;-96
2022/02/06 03:50:21;;;;;;;;;3.67;2.00;;;;;;;;5054990;28;44685;-96
2022/02/06 03:52:50;;;;;;;;;4.33;2.00;;;;;;;;5076275;28;44802;-96
2022/02/06 03:55:20;;;;;;;;;2.00;2.00;;;;;;;;5073340;28;45624;-96
2022/02/06 03:57:48;;;;;;;;;3.00;3.00;;;;;;;;5075820;28;45212;-96
2022/02/06 04:00:17;;;;;;;;;4.00;4.00;;;;;;;;5061299;28;44763;-96
2022/02/06 04:02:45;;;;;;;;;3.67;2.33;;;;;;;;5057475;28;44806;-96
2022/02/06 04:05:11;;;;;;;;;3.33;3.33;;;;;;;;5072407;28;46338;-96
2022/02/06 04:07:38;;;;;;;;;4.00;2.00;;;;;;;;5056868;28;44708;-96
2022/02/06 04:10:05;;;;;;;;;2.00;2.00;;;;;;;;5037441;28;45229;-96
2022/02/06 04:12:31;;;;;;;;;4.00;4.00;;;;;;;;5037569;28;45556;-96
2022/02/06 04:15:00;;;;;;;;;3.67;2.00;;;;;;;;5043343;28;47384;-96
2022/02/06 04:17:29;;;;;;;;;2.33;2.33;;;;;;;;5046983;28;45363;-96
2022/02/06 04:19:55;;;;;;;;;3.00;3.00;;;;;;;;5118231;22;46144;-96
2022/02/06 04:22:21;;;;;;;;;4.00;3.00;;;;;;;;5078027;22;45045;-96
2022/02/06 04:24:46;;;;;;;;;6.67;4.33;;;;;;;;5037455;28;47183;-96
2022/02/06 04:27:12;;;;;;;;;4.00;3.00;;;;;;;;5042367;28;45300;-96
2022/02/06 04:34:42;;;;;;;;;4.00;4.00;;;;;;;;5055671;28;45328;-96
2022/02/06 04:37:26;;;;;;;;;3.00;1.67;;;;;;;;5056808;28;44895;-96
2022/02/06 04:42:43;;;;;;;;;1.00;1.00;;;;;;;;5061691;28;44709;-96
2022/02/06 04:48:35;;;;;;;;;7.00;3.67;;;;;;;;5012052;28;44730;-96
2022/02/06 05:13:34;;;;;;;;;3.00;3.00;;;;;;;;4996040;28;44786;-96
2022/02/06 05:24:40;;;;;;;;;4.00;3.33;;;;;;;;5023298;28;44819;-96
2022/02/06 05:30:15;;;;;;;;;5.67;2.67;;;;;;;;5038479;28;45293;-96
2022/02/06 05:32:58;;;;;;;;;3.00;2.00;;;;;;;;5052256;28;44730;-96
2022/02/06 05:35:24;;;;;;;;;8.00;2.00;;;;;;;;5039620;28;44872;-96
2022/02/06 05:37:54;;;;;;;;;4.00;3.00;;;;;;;;5038827;28;45186;-96
2022/02/06 05:40:41;;;;;;;;;2.67;2.67;;;;;;;;5052884;28;45437;-96
2022/02/06 05:43:07;;;;;;;;;3.33;2.67;;;;;;;;4991231;28;44919;-96
2022/02/06 05:45:40;;;;;;;;;3.33;3.00;;;;;;;;5037744;28;44785;-96
2022/02/06 05:48:08;;;;;;;;;4.33;3.67;;;;;;;;5048424;28;45328;-96
2022/02/06 05:50:36;;;;;;;;;3.67;2.67;;;;;;;;5469134;22;47108;-96
2022/02/06 05:53:02;;;;;;;;;3.00;3.00;;;;;;;;5041710;28;45392;-96
2022/02/06 05:55:27;;;;;;;;;3.00;3.00;;;;;;;;5040140;28;45551;-96
2022/02/06 05:57:52;;;;;;;;;2.33;2.00;;;;;;;;5041504;28;44967;-96
2022/02/06 06:00:18;;;;;;;;;1.33;1.00;;;;;;;;5046329;28;46392;-96
2022/02/06 06:02:43;;;;;;;;;3.67;2.00;;;;;;;;5045956;28;45349;-96
2022/02/06 06:07:42;;;;;;;;;4.00;4.00;;;;;;;;5039014;28;45977;-96
2022/02/06 06:10:09;;;;;;;;;5.33;3.33;;;;;;;;5042967;28;47529;-96
2022/02/06 06:12:34;;;;;;;;;3.00;3.00;;;;;;;;5041312;28;45335;-96
2022/02/06 06:15:01;;;;;;;;;7.00;3.00;;;;;;;;5071358;22;44912;-96
2022/02/06 06:17:26;;;;;;;;;1.00;1.00;;;;;;;;5043393;28;45383;-96
2022/02/06 06:20:31;;;;;;;;;1.67;1.67;;;;;;;;5060925;28;47442;-96
2022/02/06 06:23:32;;;;;;;;;1.33;1.00;;;;;;;;5077215;28;44629;-96
2022/02/06 06:26:01;;;;;;;;;2.00;2.00;;;;;;;;5070835;28;44776;-96
2022/02/06 06:28:38;;;;;;;;;1.00;1.00;;;;;;;;5061766;28;45354;-96
2022/02/06 06:31:06;;;;;;;;;2.00;1.00;;;;;;;;5058014;28;46136;-96
2022/02/06 06:33:39;;;;;;;;;3.67;2.00;;;;;;;;5062337;28;45249;-96
2022/02/06 06:36:09;;;;;;;;;3.67;1.00;;;;;;;;5040932;28;45456;-96
2022/02/06 06:39:06;;;;;;;;;2.00;2.00;;;;;;;;5058112;28;44937;-96
2022/02/06 06:41:35;;;;;;;;;2.00;1.33;;;;;;;;5056511;28;45812;-96
2022/02/06 06:44:29;;;;;;;;;3.33;2.00;;;;;;;;5083365;28;44778;-96
2022/02/06 06:47:04;;;;;;;;;3.00;3.00;;;;;;;;5022635;28;44766;-96
2022/02/06 06:52:06;;;;;;;;;2.33;1.00;;;;;;;;5373648;22;45127;-96
2022/02/06 06:54:45;;;;;;;;;4.33;1.00;;;;;;;;5058087;28;45466;-96
2022/02/06 06:57:26;;;;;;;;;1.33;1.00;;;;;;;;5077089;28;45225;-96
2022/02/06 07:02:55;;;;;;;;;1.67;1.00;;;;;;;;5002672;28;45678;-96
2022/02/06 07:05:46;;;;;;;;;1.67;1.00;;;;;;;;5018852;28;44801;-96
2022/02/06 07:08:43;;;;;;;;;1.00;1.00;;;;;;;;5198251;22;45810;-96
2022/02/06 07:11:14;;;;;;;;;4.67;2.00;;;;;;;;5440113;22;46448;-96
2022/02/06 07:13:43;;;;;;;;;0.00;0.00;;;;;;;;5553420;22;45684;-96
2022/02/06 07:18:51;;;;;;;;;3.00;2.00;;;;;;;;5452905;22;46608;-96
2022/02/06 07:21:19;;;;;;;;;1.00;1.00;;;;;;;;5321034;22;45949;-96
2022/02/06 07:23:51;;;;;;;;;3.33;2.67;;;;;;;;5090878;22;47941;-96
2022/02/06 07:26:19;;;;;;;;;4.00;1.00;;;;;;;;5032530;28;45179;-96
2022/02/06 07:28:48;;;;;;;;;4.33;3.00;;;;;;;;5032060;28;45536;-96
2022/02/06 07:31:13;;;;;;;;;5.00;2.00;;;;;;;;5028215;28;45440;-96
2022/02/06 07:33:39;;;;;;;;;7.00;5.00;;;;;;;;5032435;28;47134;-96
2022/02/06 07:36:04;;;;;;;;;7.67;3.00;;;;;;;;5028036;28;44813;-96
2022/02/06 07:38:29;;;;;;;;;3.00;1.33;;;;;;;;5046324;28;45274;-95
2022/02/06 07:40:55;;;;;;;;;3.00;2.00;;;;;;;;5016232;28;45490;-88
2022/02/06 07:43:20;;;;;;;;;2.00;2.00;;;;;;;;5031803;28;46284;-88
2022/02/06 07:45:46;;;;;;;;;1.67;1.67;;;;;;;;5016155;28;45608;-88
2022/02/06 07:48:12;;;;;;;;;3.00;1.67;;;;;;;;5041334;28;45363;-87
2022/02/06 07:50:37;;;;;;;;;2.00;2.00;;;;;;;;5040313;28;45425;-87
2022/02/06 07:53:03;;;;;;;;;2.00;2.00;;;;;;;;5018749;28;47091;-88
2022/02/06 07:55:28;;;;;;;;;2.00;2.00;;;;;;;;5035836;28;45610;-88
2022/02/06 07:57:54;;;;;;;;;1.00;1.00;;;;;;;;5042731;28;45500;-87
2022/02/06 08:00:19;;;;;;;;;1.00;1.00;;;;;;;;5054349;28;45470;-87
2022/02/06 08:02:44;;;;;;;;;2.00;1.00;;;;;;;;5058846;28;45447;-87
2022/02/06 08:05:10;;;;;;;;;0.00;0.00;;;;;;;;5046297;28;45463;-87
2022/02/06 08:07:36;;;;;;;;;2.67;2.00;;;;;;;;5039523;28;45470;-88
2022/02/06 08:10:02;;;;;;;;;1.00;1.00;;;;;;;;5036742;28;45452;-88
2022/02/06 08:12:30;;;;;;;;;2.67;1.00;;;;;;;;5037312;28;46475;-87
2022/02/06 08:14:56;;;;;;;;;1.00;1.00;;;;;;;;5035939;28;45393;-86
2022/02/06 08:17:29;;;;;;;;;2.00;2.00;;;;;;;;5018742;28;45780;-85
2022/02/06 08:19:55;;;;;;;;;3.67;2.67;;;;;;;;5018306;28;45286;-85
2022/02/06 08:22:21;;;;;;;;;0.67;0.67;;;;;;;;5029850;28;45621;-85
2022/02/06 08:24:47;;;;;;;;;0.67;0.67;;;;;;;;5035166;28;45361;-85
2022/02/06 08:27:13;;;;;;;;;1.00;1.00;;;;;;;;5017207;28;45369;-85
2022/02/06 08:29:41;;;;;;;;;1.00;1.00;;;;;;;;5036325;28;45405;-85
2022/02/06 08:32:06;;;;;;;;;2.00;2.00;;;;;;;;5029339;28;47588;-90
2022/02/06 08:34:32;;;;;;;;;0.00;0.00;;;;;;;;5034177;28;45475;-87
2022/02/06 08:36:59;;;;;;;;;3.00;1.00;;;;;;;;5025431;28;45546;-89
2022/02/06 08:39:25;;;;;;;;;1.67;1.00;;;;;;;;5035847;28;45427;-88
2022/02/06 08:41:50;;;;;;;;;2.67;2.00;;;;;;;;5029723;28;47155;-86
2022/02/06 08:44:15;;;;;;;;;2.00;1.33;;;;;;;;5029627;28;45955;-86
2022/02/06 08:46:40;;;;;;;;;1.33;1.33;;;;;;;;5042285;28;45509;-86
2022/02/06 08:49:05;;;;;;;;;1.33;1.33;;;;;;;;5044937;28;45336;-87
2022/02/06 08:51:30;;;;;;;;;1.00;1.00;;;;;;;;5033854;28;46345;-86
2022/02/06 08:53:56;;;;;;;;;2.00;1.00;;;;;;;;5037553;28;45289;-86
2022/02/06 08:56:26;;;;;;;;;6.00;2.00;;;;;;;;5024068;28;45567;-87
2022/02/06 08:58:51;;;;;;;;;1.00;1.00;;;;;;;;5016732;28;45346;-87
2022/02/06 09:01:16;;;;;;;;;1.00;1.00;;;;;;;;5013780;28;46269;-87
2022/02/06 09:03:42;;;;;;;;;4.00;2.00;;;;;;;;5033474;28;45487;-88
2022/02/06 09:06:09;;;;;;;;;2.00;1.33;;;;;;;;5014423;28;45459;-88
2022/02/06 09:08:35;;;;;;;;;1.67;1.67;;;;;;;;5030202;28;45549;-93
2022/02/06 09:11:00;;;;;;;;;3.67;1.00;;;;;;;;5016368;28;46204;-89
2022/02/06 09:13:26;;;;;;;;;2.00;2.00;;;;;;;;5037346;28;45391;-89
2022/02/06 09:15:51;;;;;;;;;2.00;1.00;;;;;;;;5033729;28;45738;-88
2022/02/06 09:18:16;;;;;;;;;3.00;2.00;;;;;;;;5033362;28;45357;-89
2022/02/06 09:20:41;;;;;;;;;1.33;0.33;;;;;;;;5031890;28;45680;-90
2022/02/06 09:23:07;;;;;;;;;2.33;2.00;;;;;;;;5032847;28;45329;-88
2022/02/06 09:25:32;;;;;;;;;4.67;3.33;;;;;;;;5031351;28;45566;-89
2022/02/06 09:27:58;;;;;;;;;1.00;1.00;;;;;;;;5033752;28;45333;-90
2022/02/06 09:30:26;;;;;;;;;1.00;1.00;;;;;;;;5028084;28;45434;-89
2022/02/06 09:35:18;;;;;;;;;1.00;1.00;;;;;;;;5039243;28;45538;-89
2022/02/06 09:37:43;;;;;;;;;3.00;3.00;;;;;;;;5031798;28;45451;-90
2022/02/06 09:40:10;;;;;;;;;4.00;4.00;;;;;;;;5034969;28;45619;-90
2022/02/06 09:42:36;;;;;;;;;5.33;3.00;;;;;;;;5035518;28;45384;-91
2022/02/06 09:45:02;;;;;;;;;2.00;2.00;;;;;;;;5034754;28;45463;-91
2022/02/06 09:47:28;;;;;;;;;2.67;2.00;;;;;;;;5040376;28;45554;-91
2022/02/06 09:49:54;;;;;;;;;2.67;2.33;;;;;;;;5035930;28;45510;-92
2022/02/06 09:52:25;;;;;;;;;4.00;2.67;;;;;;;;5028145;28;45777;-92
2022/02/06 09:54:50;;;;;;;;;1.00;1.00;;;;;;;;5039274;28;45412;-92
2022/02/06 09:57:25;;;;;;;;;3.00;3.00;;;;;;;;5035413;28;45328;-92
2022/02/06 09:59:53;;;;;;;;;1.67;1.67;;;;;;;;5034219;28;47964;-90
2022/02/06 10:02:20;;;;;;;;;1.67;1.67;;;;;;;;5018679;28;45975;-91
2022/02/06 10:04:48;;;;;;;;;2.00;1.00;;;;;;;;5036894;28;45396;-92
2022/02/06 10:07:15;;;;;;;;;0.67;0.67;;;;;;;;5015204;28;45556;-92
2022/02/06 10:09:43;;;;;;;;;1.00;0.00;;;;;;;;5015845;28;47264;-93
2022/02/06 10:12:09;;;;;;;;;2.00;0.00;;;;;;;;5035260;28;45350;-89
2022/02/06 10:14:34;;;;;;;;;1.33;1.33;;;;;;;;5014628;28;45680;-91
2022/02/06 10:17:00;;;;;;;;;3.67;3.00;;;;;;;;5035142;28;45456;-89
2022/02/06 10:19:25;;;;;;;;;2.33;2.33;;;;;;;;5033095;28;47282;-91
2022/02/06 10:21:50;;;;;;;;;5.00;3.00;;;;;;;;5017144;28;45622;-91
2022/02/06 10:24:25;;;;;;;;;1.67;1.00;;;;;;;;5034812;28;45583;-92
2022/02/06 10:27:06;;;;;;;;;1.00;1.00;;;;;;;;5008388;28;45518;-91
2022/02/06 10:29:39;;;;;;;;;1.67;1.00;;;;;;;;5034010;28;45660;-92
2022/02/06 10:32:11;;;;;;;;;0.00;0.00;;;;;;;;5013784;28;45445;-90
2022/02/06 10:34:36;;;;;;;;;0.33;0.33;;;;;;;;5034852;28;45388;-89
2022/02/06 10:37:16;;;;;;;;;0.00;0.00;;;;;;;;5015835;28;45391;-91
2022/02/06 10:40:03;;;;;;;;;2.33;2.00;;;;;;;;5034113;28;46619;-92
2022/02/06 10:42:38;;;;;;;;;1.00;1.00;;;;;;;;5035242;28;45688;-91
2022/02/06 10:45:14;;;;;;;;;0.67;0.67;;;;;;;;5033647;28;46167;-90
2022/02/06 10:47:40;;;;;;;;;3.00;2.00;;;;;;;;5039578;28;45400;-88
2022/02/06 10:50:07;;;;;;;;;3.00;1.00;;;;;;;;5032232;28;46247;-92
2022/02/06 10:52:33;;;;;;;;;1.00;1.00;;;;;;;;5015900;28;45694;-91
2022/02/06 10:55:00;;;;;;;;;3.00;3.00;;;;;;;;5017086;28;45663;-90
2022/02/06 10:57:28;;;;;;;;;2.00;2.00;;;;;;;;5033720;28;45704;-91
2022/02/06 10:59:53;;;;;;;;;1.00;1.00;;;;;;;;5026753;28;47084;-90
2022/02/06 11:02:59;;;;;;;;;1.33;1.33;;;;;;;;5063569;28;44753;-90
2022/02/06 11:05:54;;;;;;;;;1.33;1.33;;;;;;;;5031512;28;44910;-90
2022/02/06 11:08:29;;;;;;;;;2.33;2.00;;;;;;;;5038894;28;44813;-90
2022/02/06 11:10:59;;;;;;;;;4.00;1.00;;;;;;;;5043922;28;45580;-92
2022/02/06 11:13:34;;;;;;;;;2.00;2.00;;;;;;;;5061092;28;45401;-90
2022/02/06 11:16:09;;;;;;;;;2.00;1.00;;;;;;;;5055410;28;45538;-89
2022/02/06 11:18:59;;;;;;;;;1.00;0.00;;;;;;;;5058875;28;44834;-92
2022/02/06 11:26:59;;;;;;;;;2.67;1.00;;;;;;;;5090872;22;45428;-90
2022/02/06 11:29:24;;;;;;;;;1.00;1.00;;;;;;;;5032367;28;45530;-91
2022/02/06 11:31:50;;;;;;;;;3.00;2.00;;;;;;;;5031510;28;48034;-88
2022/02/06 11:34:18;;;;;;;;;3.67;1.67;;;;;;;;5034584;28;45305;-88
2022/02/06 11:43:44;;;;;;;;;1.33;1.00;;;;;;;;5063873;28;45766;-87
2022/02/06 11:45:46;;;;;;;;;2.00;1.00;;;;;;;;5065623;28;45261;-88
2022/02/06 11:48:14;;;;;;;;;5.33;1.00;;;;;;;;5047723;28;54591;-88
2022/02/06 11:50:47;;;;;;;;;1.00;1.00;;;;;;;;5059989;28;51624;-88
2022/02/06 11:53:24;;;;;;;;;2.33;1.00;;;;;;;;5044967;28;47479;-88
2022/02/06 11:55:51;;;;;;;;;1.00;1.00;;;;;;;;5055269;28;45755;-89
2022/02/06 11:58:27;;;;;;;;;1.67;1.67;;;;;;;;5039915;28;47460;-89
2022/02/06 12:01:11;;;;;;;;;1.00;1.00;;;;;;;;5053812;28;45468;-92
2022/02/06 12:03:49;;;;;;;;;1.00;1.00;;;;;;;;5045320;28;45533;-90
2022/02/06 12:06:15;;;;;;;;;3.00;2.00;;;;;;;;5035767;28;45514;-89
2022/02/06 12:08:44;;;;;;;;;2.00;2.00;;;;;;;;5049214;28;45715;-90
2022/02/06 12:11:13;;;;;;;;;1.00;1.00;;;;;;;;5035994;28;45601;-90
2022/02/06 12:13:38;;;;;;;;;3.00;2.00;;;;;;;;5056229;28;47537;-88
2022/02/06 12:16:06;;;;;;;;;1.00;1.00;;;;;;;;5044680;28;45637;-89
2022/02/06 12:18:33;;;;;;;;;1.00;1.00;;;;;;;;5068366;28;44855;-89
2022/02/06 12:21:12;;;;;;;;;1.67;1.00;;;;;;;;5056757;28;45365;-88
2022/02/06 12:23:46;;;;;;;;;1.00;0.67;;;;;;;;5027099;28;48412;-89
2022/02/06 12:29:04;;;;;;;;;1.00;1.00;;;;;;;;5050893;28;45570;-87
2022/02/06 12:31:34;;;;;;;;;2.67;2.33;;;;;;;;5020034;28;45478;-87
2022/02/06 12:39:24;;;;;;;;;1.00;1.00;;;;;;;;5049229;28;45419;-90
2022/02/06 12:41:50;;;;;;;;;1.67;1.00;;;;;;;;5054685;28;45486;-87
2022/02/06 12:44:16;;;;;;;;;3.00;0.00;;;;;;;;5053727;28;45504;-88
2022/02/06 12:46:43;;;;;;;;;2.00;2.00;;;;;;;;5035963;28;45652;-89
2022/02/06 12:49:08;;;;;;;;;1.67;0.67;;;;;;;;5051656;28;45440;-88
2022/02/06 12:51:37;;;;;;;;;1.00;1.00;;;;;;;;5034143;28;45621;-87
2022/02/06 12:54:08;;;;;;;;;1.67;1.00;;;;;;;;5033337;28;47277;-87
2022/02/06 12:56:34;;;;;;;;;3.33;2.33;;;;;;;;5048663;28;46107;-88
2022/02/06 12:59:00;;;;;;;;;2.33;2.33;;;;;;;;5038790;28;45531;-88
2022/02/06 13:01:31;;;;;;;;;1.00;1.00;;;;;;;;5038211;28;45358;-88
2022/02/06 13:03:56;;;;;;;;;2.00;2.00;;;;;;;;5039575;28;48711;-89
2022/02/06 13:06:24;;;;;;;;;4.67;2.00;;;;;;;;5074364;28;44899;-88
2022/02/06 13:08:49;;;;;;;;;2.00;2.00;;;;;;;;5031758;28;45572;-87
2022/02/06 13:11:22;;;;;;;;;1.67;1.67;;;;;;;;5071110;27;44901;-87
2022/02/06 13:14:14;;;;;;;;;3.00;2.00;;;;;;;;5062497;28;45507;-87
2022/02/06 13:16:55;;;;;;;;;6.00;4.00;;;;;;;;5062795;28;44939;-89
2022/02/06 13:25:12;;;;;;;;;6.00;5.00;;;;;;;;5056772;28;45995;-90
2022/02/06 13:30:34;;;;;;;;;8.67;4.33;;;;;;;;5048162;28;45352;-90
2022/02/06 13:33:10;;;;;;;;;3.00;3.00;;;;;;;;5049918;28;45549;-90
2022/02/06 13:35:42;;;;;;;;;4.00;2.67;;;;;;;;5032901;28;47208;-88
2022/02/06 13:38:11;;;;;;;;;2.33;1.33;;;;;;;;5031945;28;45608;-90
2022/02/06 13:40:49;;;;;;;;;1.67;1.67;;;;;;;;5031656;28;45636;-90
2022/02/06 13:43:21;;;;;;;;;2.00;2.00;;;;;;;;5052852;28;45268;-90
2022/02/06 13:45:48;;;;;;;;;3.00;1.00;;;;;;;;5051560;28;46602;-89
2022/02/06 13:48:16;;;;;;;;;1.00;1.00;;;;;;;;5038000;28;45461;-90
2022/02/06 13:50:48;;;;;;;;;1.00;1.00;;;;;;;;5028406;28;45427;-90
2022/02/06 13:53:15;;;;;;;;;1.00;1.00;;;;;;;;5033067;28;45518;-91
2022/02/06 13:55:44;;;;;;;;;1.00;1.00;;;;;;;;5043083;28;47066;-96
2022/02/06 13:58:11;;;;;;;;;2.33;2.33;;;;;;;;5050988;28;45540;-91
2022/02/06 14:00:36;;;;;;;;;3.33;0.00;;;;;;;;5034945;28;45503;-90
2022/02/06 14:03:01;;;;;;;;;1.67;1.00;;;;;;;;5030183;28;45455;-93
2022/02/06 14:05:28;;;;;;;;;3.00;1.33;;;;;;;;5030343;28;47251;-92
2022/02/06 14:08:00;;;;;;;;;1.00;1.00;;;;;;;;5029516;28;45773;-92
2022/02/06 14:10:30;;;;;;;;;1.33;1.33;;;;;;;;5032201;28;45416;-94
2022/02/06 14:12:56;;;;;;;;;3.00;0.00;;;;;;;;5044008;28;45471;-93
2022/02/06 14:15:25;;;;;;;;;0.67;0.67;;;;;;;;5048305;28;46301;-91
2022/02/06 14:17:53;;;;;;;;;1.00;1.00;;;;;;;;5049737;28;45540;-92
2022/02/06 14:20:24;;;;;;;;;1.00;1.00;;;;;;;;5047186;28;46009;-92
2022/02/06 14:22:57;;;;;;;;;1.00;1.00;;;;;;;;5051622;28;45542;-94
2022/02/06 14:25:27;;;;;;;;;2.00;1.00;;;;;;;;5051111;28;47359;-91
2022/02/06 14:27:52;;;;;;;;;1.00;0.33;;;;;;;;5036690;28;45541;-89
2022/02/06 14:30:21;;;;;;;;;1.00;1.00;;;;;;;;5035223;28;45496;-93
2022/02/06 14:33:04;;;;;;;;;1.00;0.00;;;;;;;;5053898;28;45517;-92
2022/02/06 14:35:39;;;;;;;;;1.00;1.00;;;;;;;;5053282;28;46230;-90
2022/02/06 14:38:06;;;;;;;;;0.67;0.00;;;;;;;;5034050;28;45526;-92
2022/02/06 14:43:16;;;;;;;;;0.00;0.00;;;;;;;;5052950;28;45531;-92
2022/02/06 14:45:44;;;;;;;;;2.00;2.00;;;;;;;;5051629;28;45576;-90
2022/02/06 14:48:09;;;;;;;;;2.00;2.00;;;;;;;;5034053;28;46136;-90
2022/02/06 14:50:36;;;;;;;;;1.00;1.00;;;;;;;;5049791;28;45486;-92
2022/02/06 14:53:01;;;;;;;;;0.67;0.67;;;;;;;;5036409;28;45509;-93
2022/02/06 14:55:26;;;;;;;;;1.67;1.67;;;;;;;;5053890;28;46579;-91
2022/02/06 14:57:51;;;;;;;;;2.00;1.00;;;;;;;;5035557;28;45945;-90
2022/02/06 15:00:16;;;;;;;;;0.00;0.00;;;;;;;;5050020;28;45490;-90
2022/02/06 15:02:42;;;;;;;;;0.00;0.00;;;;;;;;5053021;28;45395;-92
2022/02/06 15:05:08;;;;;;;;;0.33;0.33;;;;;;;;5035056;28;47190;-91
2022/02/06 15:07:33;;;;;;;;;2.00;2.00;;;;;;;;5035828;28;45593;-92
2022/02/06 15:09:58;;;;;;;;;2.00;1.00;;;;;;;;5053800;28;45495;-89
2022/02/06 15:12:24;;;;;;;;;1.33;1.00;;;;;;;;5051720;28;45543;-92
2022/02/06 15:14:51;;;;;;;;;1.67;1.00;;;;;;;;5051220;28;45680;-91
2022/02/06 15:17:18;;;;;;;;;1.00;1.00;;;;;;;;5035380;28;45585;-91
2022/02/06 15:19:47;;;;;;;;;1.33;1.00;;;;;;;;5034605;28;45367;-90
2022/02/06 15:22:12;;;;;;;;;1.00;1.00;;;;;;;;5065151;28;51741;-88
2022/02/06 15:24:37;;;;;;;;;1.00;1.00;;;;;;;;5048506;28;47409;-90
2022/02/06 15:27:02;;;;;;;;;2.33;0.33;;;;;;;;5049206;28;44817;-90
2022/02/06 15:29:29;;;;;;;;;0.00;0.00;;;;;;;;5059084;28;45480;-90
2022/02/06 15:31:54;;;;;;;;;1.00;1.00;;;;;;;;5052415;28;45620;-94
2022/02/06 15:34:20;;;;;;;;;2.00;2.00;;;;;;;;5032961;28;47219;-92
2022/02/06 15:36:50;;;;;;;;;1.33;0.67;;;;;;;;5037706;28;45353;-92
2022/02/06 15:41:51;;;;;;;;;0.33;0.00;;;;;;;;5051924;28;45452;-90
2022/02/06 15:44:17;;;;;;;;;2.00;1.33;;;;;;;;5033524;28;47370;-90
2022/02/06 15:46:42;;;;;;;;;3.67;3.00;;;;;;;;5032391;28;46146;-94
2022/02/06 15:49:07;;;;;;;;;1.67;1.33;;;;;;;;5035113;28;45397;-89
2022/02/06 15:51:32;;;;;;;;;4.00;2.67;;;;;;;;5055404;28;45652;-90
2022/02/06 15:53:58;;;;;;;;;2.67;2.00;;;;;;;;5032366;28;47427;-92
2022/02/06 15:56:23;;;;;;;;;1.00;1.00;;;;;;;;5051957;28;47851;-94
2022/02/06 15:58:48;;;;;;;;;2.00;2.00;;;;;;;;5040153;28;46823;-91
2022/02/06 16:01:14;;;;;;;;;1.00;1.00;;;;;;;;5058187;28;45770;-92
2022/02/06 16:03:39;;;;;;;;;3.00;2.00;;;;;;;;5039203;28;47304;-91
2022/02/06 16:06:05;;;;;;;;;1.00;1.00;;;;;;;;5031028;28;45427;-91
2022/02/06 16:08:30;;;;;;;;;3.00;2.00;;;;;;;;5033649;28;45381;-91
2022/02/06 16:10:55;;;;;;;;;8.00;2.00;;;;;;;;5028262;28;45677;-92
2022/02/06 16:13:21;;;;;;;;;1.00;1.00;;;;;;;;5050401;28;45304;-91
2022/02/06 16:15:46;;;;;;;;;3.00;2.00;;;;;;;;5035101;28;46480;-91
2022/02/06 16:18:12;;;;;;;;;1.00;1.00;;;;;;;;5032759;28;45616;-92
2022/02/06 16:20:37;;;;;;;;;2.00;2.00;;;;;;;;5046362;28;45929;-92
2022/02/06 16:23:02;;;;;;;;;4.33;4.33;;;;;;;;5048089;28;53733;-93
2022/02/06 16:25:27;;;;;;;;;1.00;1.00;;;;;;;;5025404;28;46335;-91
2022/02/06 16:27:52;;;;;;;;;1.00;1.00;;;;;;;;5032169;28;45403;-91
2022/02/06 16:30:18;;;;;;;;;1.00;1.00;;;;;;;;5012666;28;45524;-89
2022/02/06 16:32:43;;;;;;;;;7.33;5.00;;;;;;;;5030865;28;45614;-93
2022/02/06 16:35:09;;;;;;;;;2.33;2.33;;;;;;;;5021372;28;45583;-90
2022/02/06 16:37:34;;;;;;;;;2.00;2.00;;;;;;;;5012029;28;45647;-90
2022/02/06 16:40:00;;;;;;;;;4.33;2.67;;;;;;;;5007714;28;45479;-91
2022/02/06 16:42:25;;;;;;;;;5.33;3.00;;;;;;;;5026440;28;45621;-90
2022/02/06 16:44:52;;;;;;;;;2.00;1.67;;;;;;;;5029399;28;45522;-93
2022/02/06 16:47:17;;;;;;;;;6.67;3.00;;;;;;;;5028170;28;45523;-92
2022/02/06 16:49:43;;;;;;;;;6.00;2.33;;;;;;;;5012716;28;45589;-89
2022/02/06 16:52:08;;;;;;;;;2.00;1.00;;;;;;;;5022415;28;46275;-91
2022/02/06 16:54:34;;;;;;;;;3.00;3.00;;;;;;;;5018170;28;45762;-96
2022/02/06 16:57:00;;;;;;;;;3.00;2.00;;;;;;;;5020597;28;45366;-95
2022/02/06 16:59:26;;;;;;;;;1.67;0.67;;;;;;;;5026593;28;45409;-95
2022/02/06 17:01:52;;;;;;;;;2.00;2.00;;;;;;;;5018929;28;46941;-94
2022/02/06 17:04:17;;;;;;;;;1.00;1.00;;;;;;;;5018390;28;45353;-96
2022/02/06 17:06:42;;;;;;;;;3.00;1.00;;;;;;;;5017885;28;45442;-93
2022/02/06 17:09:11;;;;;;;;;2.00;1.33;;;;;;;;5037267;28;45396;-94
2022/02/06 17:11:37;;;;;;;;;1.00;1.00;;;;;;;;5033501;28;47216;-92
2022/02/06 17:14:03;;;;;;;;;1.00;1.00;;;;;;;;5015674;28;45524;-94
2022/02/06 17:16:29;;;;;;;;;0.00;0.00;;;;;;;;5012884;28;45868;-92
2022/02/06 17:18:58;;;;;;;;;0.00;0.00;;;;;;;;5017505;28;45578;-93
2022/02/06 17:21:42;;;;;;;;;0.00;0.00;;;;;;;;5032556;28;47215;-94
2022/02/06 17:24:07;;;;;;;;;3.67;1.00;;;;;;;;5013533;28;45530;-93
2022/02/06 17:26:34;;;;;;;;;2.00;1.33;;;;;;;;5033184;28;45372;-95
2022/02/06 17:28:59;;;;;;;;;1.00;1.00;;;;;;;;5033199;28;45558;-93